Luz De Mar — ECIJ — position and weather

sailwx.info

Track history (hours):
 
Tides and Currents Weather Stations Pressure Air Temp Water Temp Dewpoint Dewpoint Depression Visibility Wind Speed Wind Dir Waves Ship Positions

Luz De Mar

Last reported at 2017-Sep-21 06:48 UTC. Time now 2017-Sep-23 18:33 UTC.
Position N 35°54' W 005°19'.

Length 56 m; draft 6.7 m.

Type: SAR. MMSI: 224311000.

Date/timePositionNaut miles runAvg speedWind from/ knotsBaromVisibWave heightAir tempDewpointWater temp
2017-Sep-21 06:48N 35°54' W 005°19'0 0.0
2017-Sep-21 06:30N 35°54' W 005°19'0 0.0
2017-Sep-21 06:00N 35°54' W 005°19'0 0.0
2017-Sep-21 05:30N 35°54' W 005°19'0 0.0
2017-Sep-21 05:00N 35°54' W 005°19'0 0.0
2017-Sep-21 04:30N 35°54' W 005°19'0 0.0
2017-Sep-21 04:00N 35°54' W 005°19'0 0.0
2017-Sep-21 03:30N 35°54' W 005°19'0 0.0
2017-Sep-21 03:00N 35°54' W 005°19'0 0.0
2017-Sep-21 02:30N 35°54' W 005°19'0 0.0
2017-Sep-21 02:00N 35°54' W 005°19'0 0.0
2017-Sep-21 01:30N 35°54' W 005°19'0 0.0
2017-Sep-21 01:00N 35°54' W 005°19'0 0.0
2017-Sep-21 00:30N 35°54' W 005°19'0 0.0
2017-Sep-21 00:00N 35°54' W 005°19'0 0.0
2017-Sep-20 23:30N 35°54' W 005°19'0 0.0
2017-Sep-20 23:00N 35°54' W 005°19'0 0.0
2017-Sep-20 22:30N 35°54' W 005°19'0 0.0
2017-Sep-20 22:00N 35°54' W 005°19'0 0.0
2017-Sep-20 21:30N 35°54' W 005°19'0 0.0
2017-Sep-20 21:00N 35°54' W 005°19'0 0.0
2017-Sep-20 20:30N 35°54' W 005°19'0 0.0
2017-Sep-20 20:00N 35°54' W 005°19'0 0.0
2017-Sep-20 19:30N 35°54' W 005°19'0 0.0
2017-Sep-20 19:00N 35°54' W 005°19'0 0.0
2017-Sep-20 18:30N 35°54' W 005°19'0 0.0
2017-Sep-20 18:00N 35°54' W 005°19'0 0.0
2017-Sep-20 17:30N 35°54' W 005°19'0 0.0
2017-Sep-20 17:00N 35°54' W 005°19'0 0.0
2017-Sep-20 16:30N 35°54' W 005°19'0 0.0
2017-Sep-20 16:00N 35°54' W 005°19'0 0.0
2017-Sep-20 15:30N 35°54' W 005°19'0 0.0
2017-Sep-20 15:00N 35°54' W 005°19'3 2.9
2017-Sep-20 14:01N 35°56' W 005°21'13 1.9
2017-Sep-20 07:05N 35°58' W 005°37'111.3
2017-Sep-20 06:59N 35°58' W 005°35'511.4
2017-Sep-20 06:30N 35°60' W 005°29'9 8.3
2017-Sep-20 05:22N 36°09' W 005°25'1 0.1
2017-Sep-19 19:54N 36°08' W 005°26'0 0.0
2017-Sep-19 19:18N 36°08' W 005°26'0 0.0
2017-Sep-19 18:54N 36°08' W 005°26'0 0.0
2017-Sep-19 18:24N 36°08' W 005°26'0 0.0
2017-Sep-19 18:00N 36°08' W 005°26'  
2017-Sep-13 00:23N 36°08' W 005°26'0 0.0
2017-Sep-12 23:53N 36°08' W 005°26'0 0.0
2017-Sep-12 18:11N 36°08' W 005°26'0 0.0
2017-Sep-12 06:34N 36°08' W 005°26'1 3.3
2017-Sep-12 06:21N 36°09' W 005°26'3 7.9
2017-Sep-12 06:00N 36°07' W 005°23'510.8
2017-Sep-12 05:30N 36°05' W 005°17'5 9.1
2017-Sep-12 05:01N 36°04' W 005°12'6 8.3
2017-Sep-12 04:15N 36°03' W 005°04'1 4.1
2017-Sep-12 03:55N 36°02' W 005°06'2 4.1
2017-Sep-12 03:29N 36°02' W 005°08'2 4.1
2017-Sep-12 03:00N 36°02' W 005°10'2 4.2
2017-Sep-12 02:31N 36°01' W 005°13'2 4.5
2017-Sep-12 02:00N 36°01' W 005°16'2 4.9
2017-Sep-12 01:30N 36°00' W 005°19'3 5.2
2017-Sep-12 01:00N 35°59' W 005°22'3 5.6
2017-Sep-12 00:30N 35°58' W 005°25'3 6.6
2017-Sep-12 00:00N 35°57' W 005°29'21 6.6
2017-Sep-11 20:51N 35°53' W 005°54'4 3.1
2017-Sep-11 19:33N 35°56' W 005°51'0 8.3
2017-Sep-11 19:29N 35°56' W 005°50'1210.4
2017-Sep-11 18:18N 35°57' W 005°35'311.4
2017-Sep-11 18:00N 35°58' W 005°31'510.6
2017-Sep-11 17:31N 36°01' W 005°25'  
Track history (hours):
 
Tides and Currents Weather Stations Pressure Air Temp Water Temp Dewpoint Dewpoint Depression Visibility Wind Speed Wind Dir Waves Ship Positions

Luz De Mar

Last reported at 2017-Sep-21 06:48 UTC. Time now 2017-Sep-23 18:33 UTC.
Position N 35°54' W 005°19'.

Length 56 m; draft 6.7 m.

Type: SAR. MMSI: 224311000.

Date/timePositionNaut miles runAvg speedWind from/ knotsBaromVisibWave heightAir tempDewpointWater temp
2017-Sep-21 06:48N 35°54' W 005°19'0 0.0
2017-Sep-21 06:30N 35°54' W 005°19'0 0.0
2017-Sep-21 06:00N 35°54' W 005°19'0 0.0
2017-Sep-21 05:30N 35°54' W 005°19'0 0.0
2017-Sep-21 05:00N 35°54' W 005°19'0 0.0
2017-Sep-21 04:30N 35°54' W 005°19'0 0.0
2017-Sep-21 04:00N 35°54' W 005°19'0 0.0
2017-Sep-21 03:30N 35°54' W 005°19'0 0.0
2017-Sep-21 03:00N 35°54' W 005°19'0 0.0
2017-Sep-21 02:30N 35°54' W 005°19'0 0.0
2017-Sep-21 02:00N 35°54' W 005°19'0 0.0
2017-Sep-21 01:30N 35°54' W 005°19'0 0.0
2017-Sep-21 01:00N 35°54' W 005°19'0 0.0
2017-Sep-21 00:30N 35°54' W 005°19'0 0.0
2017-Sep-21 00:00N 35°54' W 005°19'0 0.0
2017-Sep-20 23:30N 35°54' W 005°19'0 0.0
2017-Sep-20 23:00N 35°54' W 005°19'0 0.0
2017-Sep-20 22:30N 35°54' W 005°19'0 0.0
2017-Sep-20 22:00N 35°54' W 005°19'0 0.0
2017-Sep-20 21:30N 35°54' W 005°19'0 0.0
2017-Sep-20 21:00N 35°54' W 005°19'0 0.0
2017-Sep-20 20:30N 35°54' W 005°19'0 0.0
2017-Sep-20 20:00N 35°54' W 005°19'0 0.0
2017-Sep-20 19:30N 35°54' W 005°19'0 0.0
2017-Sep-20 19:00N 35°54' W 005°19'0 0.0
2017-Sep-20 18:30N 35°54' W 005°19'0 0.0
2017-Sep-20 18:00N 35°54' W 005°19'0 0.0
2017-Sep-20 17:30N 35°54' W 005°19'0 0.0
2017-Sep-20 17:00N 35°54' W 005°19'0 0.0
2017-Sep-20 16:30N 35°54' W 005°19'0 0.0
2017-Sep-20 16:00N 35°54' W 005°19'0 0.0
2017-Sep-20 15:30N 35°54' W 005°19'0 0.0
2017-Sep-20 15:00N 35°54' W 005°19'3 2.9
2017-Sep-20 14:01N 35°56' W 005°21'13 1.9
2017-Sep-20 07:05N 35°58' W 005°37'111.3
2017-Sep-20 06:59N 35°58' W 005°35'511.4
2017-Sep-20 06:30N 35°60' W 005°29'9 8.3
2017-Sep-20 05:22N 36°09' W 005°25'1 0.1
2017-Sep-19 19:54N 36°08' W 005°26'0 0.0
2017-Sep-19 19:18N 36°08' W 005°26'0 0.0
2017-Sep-19 18:54N 36°08' W 005°26'0 0.0
2017-Sep-19 18:24N 36°08' W 005°26'0 0.0
2017-Sep-19 18:00N 36°08' W 005°26'  
2017-Sep-13 00:23N 36°08' W 005°26'0 0.0
2017-Sep-12 23:53N 36°08' W 005°26'0 0.0
2017-Sep-12 18:11N 36°08' W 005°26'0 0.0
2017-Sep-12 06:34N 36°08' W 005°26'1 3.3
2017-Sep-12 06:21N 36°09' W 005°26'3 7.9
2017-Sep-12 06:00N 36°07' W 005°23'510.8
2017-Sep-12 05:30N 36°05' W 005°17'5 9.1
2017-Sep-12 05:01N 36°04' W 005°12'6 8.3
2017-Sep-12 04:15N 36°03' W 005°04'1 4.1
2017-Sep-12 03:55N 36°02' W 005°06'2 4.1
2017-Sep-12 03:29N 36°02' W 005°08'2 4.1
2017-Sep-12 03:00N 36°02' W 005°10'2 4.2
2017-Sep-12 02:31N 36°01' W 005°13'2 4.5
2017-Sep-12 02:00N 36°01' W 005°16'2 4.9
2017-Sep-12 01:30N 36°00' W 005°19'3 5.2
2017-Sep-12 01:00N 35°59' W 005°22'3 5.6
2017-Sep-12 00:30N 35°58' W 005°25'3 6.6
2017-Sep-12 00:00N 35°57' W 005°29'21 6.6
2017-Sep-11 20:51N 35°53' W 005°54'4 3.1
2017-Sep-11 19:33N 35°56' W 005°51'0 8.3
2017-Sep-11 19:29N 35°56' W 005°50'1210.4
2017-Sep-11 18:18N 35°57' W 005°35'311.4
2017-Sep-11 18:00N 35°58' W 005°31'510.6
2017-Sep-11 17:31N 36°01' W 005°25'  

Dump ship's entire track history